Masset Airport

Current Flights

Departures
Arrivals
Number Arrival From Airline
 8P971 11:05  Vancouver  Pacific Coastal Airlines
Info
Name: Masset Airport
Identifier:  ZMT/CZMT
Local Time:  23. May 21:50
City
Flights per Day
1 flights
Distance: 756km (470mi)
Punctuality
83% (0 flights per day delayed)
Delay Average: 53 minutes
Current Weather
 12 C (Humidity: 81%)
  10kt (18km/h / 11mph) from 320°
17 knots Gusts

  Few clouds at 600 feet (182 meter)
  Scattered clouds at 1,200 feet (365 meter)
  Broken clouds at 2,000 feet (609 meter)
  24km (14 mi.)
 METAR CZMT 240000Z 32010G17KT 15SM FEW006 SCT012 BKN020 12/09 A3017 RMK CF2SC1SC3 LAST STFD OBS/NXT 241300Z SLP218

Current Delays

Departures
N/A
Arrivals
N/A

Destinations

Top Destinations
Airport Flights
per week
Seats
per week
  Vancouver (YVR) 7 28 1 4

Airlines & Planes

Top Airlines
Airline Flights
per Day
Seats
per Day
  Pacific Coastal Airlines 1 4
Top Plane Types
Manufacturer Model Flights Seats
Saab 340 1.7/day 4/day 4.533333333333333
Beech 1900D 0.1/day - 0
Beech B300 Super King Air 350 0.0/day - 0